Time;durP1;ratioP1;P1;durP2;ratioP2;P2;SDS_P1;SDS_P2;PMS_P1;PMS_P2;Temp;Humidity;BMP_temperature;BMP_pressure;BME280_temperature;BME280_humidity;BME280_pressure;Samples;Min_cycle;Max_cycle;Signal;HPM_P1;HPM_P2
2021/06/03 00:00:43;;;;;;;;;;;21.30;44.90;;;;;;461040;258;1098;-45
2021/06/03 00:02:44;;;;;;;;;;;21.30;44.90;;;;;;460940;258;1107;-45
2021/06/03 00:04:45;;;;;;;;;;;21.30;44.90;;;;;;461070;258;1034;-45
2021/06/03 00:06:46;;;;;;;;;;;21.40;44.90;;;;;;460932;258;1307;-45
2021/06/03 00:08:48;;;;;;;;;;;21.40;44.80;;;;;;461185;258;1101;-45
2021/06/03 00:10:50;;;;;;;;;;;21.40;44.80;;;;;;460886;258;1398;-45
2021/06/03 00:12:51;;;;;;;;;;;21.40;44.80;;;;;;460880;258;1193;-45
2021/06/03 00:14:52;;;;;;;;;;;21.40;44.80;;;;;;460973;258;2157;-45
2021/06/03 00:16:53;;;;;;;;;;;21.50;44.80;;;;;;460972;258;1224;-45
2021/06/03 00:18:55;;;;;;;;;;;21.50;44.70;;;;;;460893;258;1168;-45
2021/06/03 00:20:56;;;;;;;;;;;21.50;44.70;;;;;;461000;258;1164;-45
2021/06/03 00:22:57;;;;;;;;;;;21.50;44.70;;;;;;461086;258;1090;-45
2021/06/03 00:24:59;;;;;;;;;;;21.50;44.70;;;;;;460999;258;1188;-45
2021/06/03 00:27:00;;;;;;;;;;;21.50;44.70;;;;;;460898;258;1336;-45
2021/06/03 00:29:01;;;;;;;;;;;21.50;44.60;;;;;;460930;258;1136;-45
2021/06/03 00:31:02;;;;;;;;;;;21.50;44.60;;;;;;461012;258;1223;-45
2021/06/03 00:33:04;;;;;;;;;;;21.50;44.60;;;;;;461052;258;1121;-45
2021/06/03 00:35:05;;;;;;;;;;;21.50;44.60;;;;;;460908;258;2160;-45
2021/06/03 00:37:06;;;;;;;;;;;21.60;44.60;;;;;;460979;258;1200;-45
2021/06/03 00:39:08;;;;;;;;;;;21.60;44.50;;;;;;461086;258;1113;-45
2021/06/03 00:41:09;;;;;;;;;;;21.60;44.50;;;;;;460905;258;1199;-45
2021/06/03 00:43:10;;;;;;;;;;;21.60;44.50;;;;;;461026;258;1290;-45
2021/06/03 00:45:11;;;;;;;;;;;21.60;44.50;;;;;;460867;258;1095;-45
2021/06/03 00:47:13;;;;;;;;;;;21.60;44.50;;;;;;460897;258;1197;-45
2021/06/03 00:49:14;;;;;;;;;;;21.60;44.50;;;;;;460999;258;1139;-45
2021/06/03 00:51:15;;;;;;;;;;;21.60;44.50;;;;;;460913;258;1100;-45
2021/06/03 00:53:17;;;;;;;;;;;21.70;44.50;;;;;;460962;258;1078;-45
2021/06/03 00:55:18;;;;;;;;;;;21.60;44.40;;;;;;460964;258;2153;-45
2021/06/03 00:57:20;;;;;;;;;;;21.70;44.40;;;;;;460914;258;1246;-45
2021/06/03 00:59:21;;;;;;;;;;;21.70;44.40;;;;;;460942;258;1077;-45
2021/06/03 01:01:22;;;;;;;;;;;21.70;44.40;;;;;;461005;258;1095;-45
2021/06/03 01:03:23;;;;;;;;;;;21.80;44.30;;;;;;461031;258;1288;-45
2021/06/03 01:05:25;;;;;;;;;;;21.80;44.20;;;;;;460959;258;1063;-45
2021/06/03 01:07:26;;;;;;;;;;;21.30;45.20;;;;;;461027;258;1278;-45
2021/06/03 01:09:28;;;;;;;;;;;20.80;46.40;;;;;;460869;258;1119;-45
2021/06/03 01:11:29;;;;;;;;;;;20.40;47.60;;;;;;460910;258;1462;-45
2021/06/03 01:13:30;;;;;;;;;;;20.10;48.30;;;;;;460943;258;1339;-45
2021/06/03 01:15:31;;;;;;;;;;;19.90;48.80;;;;;;461048;258;2173;-45
2021/06/03 01:17:33;;;;;;;;;;;19.80;49.20;;;;;;460936;258;1404;-45
2021/06/03 01:19:34;;;;;;;;;;;19.60;49.50;;;;;;461048;258;1106;-45
2021/06/03 01:21:38;;;;;;;;;;;19.50;49.80;;;;;;461070;258;1183;-45
2021/06/03 01:23:37;;;;;;;;;;;19.50;50.00;;;;;;461086;258;1338;-45
2021/06/03 01:25:38;;;;;;;;;;;19.40;50.20;;;;;;461103;258;1108;-45
2021/06/03 01:27:40;;;;;;;;;;;19.30;50.30;;;;;;460949;258;1337;-45
2021/06/03 01:29:41;;;;;;;;;;;19.30;50.30;;;;;;461206;258;1069;-45
2021/06/03 01:31:42;;;;;;;;;;;19.30;50.40;;;;;;460856;258;1201;-45
2021/06/03 01:33:43;;;;;;;;;;;19.20;50.50;;;;;;460960;258;1106;-45
2021/06/03 01:35:45;;;;;;;;;;;19.20;50.70;;;;;;460880;258;2173;-45
2021/06/03 01:37:46;;;;;;;;;;;19.10;50.70;;;;;;460944;258;1094;-45
2021/06/03 01:39:47;;;;;;;;;;;19.10;50.80;;;;;;460919;258;1133;-45
2021/06/03 01:41:48;;;;;;;;;;;19.00;50.90;;;;;;460899;258;1347;-45
2021/06/03 01:43:50;;;;;;;;;;;19.00;51.00;;;;;;461015;258;1123;-45
2021/06/03 01:45:51;;;;;;;;;;;19.00;51.00;;;;;;461016;258;1101;-45
2021/06/03 01:47:52;;;;;;;;;;;19.00;51.10;;;;;;461055;258;1101;-45
2021/06/03 01:49:54;;;;;;;;;;;19.00;51.10;;;;;;461043;258;1241;-45
2021/06/03 01:52:00;;;;;;;;;;;19.00;51.10;;;;;;461081;258;1130;-45
2021/06/03 01:53:58;;;;;;;;;;;18.90;51.20;;;;;;460775;258;1262;-45
2021/06/03 01:55:59;;;;;;;;;;;18.90;51.40;;;;;;461137;258;2145;-45
2021/06/03 01:58:00;;;;;;;;;;;18.80;51.40;;;;;;460989;258;1208;-45
2021/06/03 02:00:01;;;;;;;;;;;18.80;51.40;;;;;;460901;258;1148;-45
2021/06/03 02:02:03;;;;;;;;;;;18.80;51.40;;;;;;461047;258;1258;-45
2021/06/03 02:04:04;;;;;;;;;;;18.80;51.40;;;;;;460973;258;1198;-45
2021/06/03 02:06:05;;;;;;;;;;;18.80;51.50;;;;;;460963;258;1076;-45
2021/06/03 02:08:07;;;;;;;;;;;18.80;51.40;;;;;;460975;258;1138;-45
2021/06/03 02:10:08;;;;;;;;;;;18.70;51.60;;;;;;460941;258;2496;-45
2021/06/03 02:12:09;;;;;;;;;;;18.70;51.60;;;;;;461062;258;1224;-45
2021/06/03 02:14:10;;;;;;;;;;;18.70;51.70;;;;;;461054;258;1087;-45
2021/06/03 02:16:12;;;;;;;;;;;18.70;51.80;;;;;;460917;258;2172;-45
2021/06/03 02:18:13;;;;;;;;;;;18.70;51.80;;;;;;460952;258;1099;-45
2021/06/03 02:20:14;;;;;;;;;;;18.70;51.80;;;;;;461016;258;1123;-45
2021/06/03 02:22:16;;;;;;;;;;;18.70;51.70;;;;;;461008;258;1133;-45
2021/06/03 02:24:17;;;;;;;;;;;18.70;51.70;;;;;;460939;258;1082;-45
2021/06/03 02:26:18;;;;;;;;;;;18.70;51.70;;;;;;461016;258;1071;-45
2021/06/03 02:28:19;;;;;;;;;;;18.60;51.80;;;;;;461010;258;1178;-45
2021/06/03 02:30:21;;;;;;;;;;;18.60;51.80;;;;;;460908;258;1150;-45
2021/06/03 02:32:22;;;;;;;;;;;18.60;51.80;;;;;;460990;258;1086;-45
2021/06/03 02:34:23;;;;;;;;;;;18.50;51.90;;;;;;460965;258;1215;-45
2021/06/03 02:36:24;;;;;;;;;;;18.60;52.00;;;;;;461072;258;2220;-45
2021/06/03 02:38:26;;;;;;;;;;;18.50;52.00;;;;;;460915;258;1067;-45
2021/06/03 02:40:27;;;;;;;;;;;18.50;52.00;;;;;;460924;258;1061;-45
2021/06/03 02:42:28;;;;;;;;;;;18.50;52.00;;;;;;460992;258;1123;-45
2021/06/03 02:44:30;;;;;;;;;;;18.50;52.10;;;;;;460890;258;1155;-45
2021/06/03 02:46:31;;;;;;;;;;;18.50;52.10;;;;;;460873;258;1245;-45
2021/06/03 02:48:32;;;;;;;;;;;18.50;52.10;;;;;;460934;258;1079;-45
2021/06/03 02:50:33;;;;;;;;;;;18.50;52.10;;;;;;460986;258;1106;-45
2021/06/03 02:52:35;;;;;;;;;;;18.40;52.10;;;;;;460966;258;1401;-45
2021/06/03 02:54:36;;;;;;;;;;;18.40;52.10;;;;;;460909;258;1106;-45
2021/06/03 02:56:37;;;;;;;;;;;18.40;52.10;;;;;;460943;258;2236;-45
2021/06/03 02:58:38;;;;;;;;;;;18.40;52.10;;;;;;460952;258;1185;-45
2021/06/03 03:00:40;;;;;;;;;;;18.60;51.90;;;;;;460928;258;1099;-45
2021/06/03 03:02:41;;;;;;;;;;;19.00;50.80;;;;;;460896;258;1338;-45
2021/06/03 03:04:43;;;;;;;;;;;19.40;49.70;;;;;;460960;258;1079;-45
2021/06/03 03:06:44;;;;;;;;;;;19.70;48.90;;;;;;460967;258;1252;-45
2021/06/03 03:08:45;;;;;;;;;;;19.90;48.30;;;;;;460938;258;1085;-45
2021/06/03 03:10:47;;;;;;;;;;;20.00;47.80;;;;;;460891;258;1197;-45
2021/06/03 03:12:48;;;;;;;;;;;20.20;47.50;;;;;;461159;258;1215;-45
2021/06/03 03:14:49;;;;;;;;;;;20.30;47.20;;;;;;460931;258;1102;-45
2021/06/03 03:16:51;;;;;;;;;;;20.40;46.90;;;;;;460888;258;2212;-45
2021/06/03 03:18:52;;;;;;;;;;;20.40;46.70;;;;;;461195;258;1133;-45
2021/06/03 03:20:54;;;;;;;;;;;20.50;46.70;;;;;;461064;258;1703;-45
2021/06/03 03:22:55;;;;;;;;;;;20.60;46.60;;;;;;460900;258;1153;-45
2021/06/03 03:24:56;;;;;;;;;;;20.60;46.40;;;;;;460982;258;1125;-45
2021/06/03 03:26:58;;;;;;;;;;;20.70;46.30;;;;;;461000;258;1262;-45
2021/06/03 03:28:59;;;;;;;;;;;20.70;46.20;;;;;;460986;258;1196;-45
2021/06/03 03:31:00;;;;;;;;;;;20.80;46.10;;;;;;460885;258;1146;-45
2021/06/03 03:33:01;;;;;;;;;;;20.80;46.00;;;;;;460994;258;1182;-45
2021/06/03 03:35:03;;;;;;;;;;;20.90;46.00;;;;;;460996;258;1113;-45
2021/06/03 03:37:04;;;;;;;;;;;20.90;45.90;;;;;;461015;258;2200;-45
2021/06/03 03:39:05;;;;;;;;;;;20.90;45.80;;;;;;461069;258;1259;-45
2021/06/03 03:41:07;;;;;;;;;;;21.00;45.70;;;;;;460939;258;1125;-45
2021/06/03 03:43:08;;;;;;;;;;;21.00;45.60;;;;;;460904;258;1286;-45
2021/06/03 03:45:09;;;;;;;;;;;21.00;45.50;;;;;;461107;258;1135;-45
2021/06/03 03:47:10;;;;;;;;;;;21.10;45.40;;;;;;460936;258;1555;-45
2021/06/03 03:49:12;;;;;;;;;;;21.10;45.40;;;;;;461328;258;1105;-45
2021/06/03 03:51:14;;;;;;;;;;;21.10;45.30;;;;;;460902;258;1266;-45
2021/06/03 03:53:14;;;;;;;;;;;21.20;45.40;;;;;;460879;258;1374;-45
2021/06/03 03:55:16;;;;;;;;;;;21.20;45.30;;;;;;461072;258;1079;-45
2021/06/03 03:57:18;;;;;;;;;;;21.20;45.20;;;;;;460906;258;2200;-45
2021/06/03 03:59:18;;;;;;;;;;;21.20;45.20;;;;;;461047;258;1844;-45
2021/06/03 04:01:22;;;;;;;;;;;21.30;45.10;;;;;;461017;258;1080;-45
2021/06/03 04:03:21;;;;;;;;;;;21.30;45.00;;;;;;461080;258;1998;-45
2021/06/03 04:05:23;;;;;;;;;;;21.30;45.00;;;;;;461257;258;1086;-45
2021/06/03 04:07:24;;;;;;;;;;;21.30;45.00;;;;;;461004;258;1074;-45
2021/06/03 04:09:27;;;;;;;;;;;21.30;45.00;;;;;;461055;258;1094;-45
2021/06/03 04:11:26;;;;;;;;;;;21.40;45.00;;;;;;460820;258;2351;-45
2021/06/03 04:13:28;;;;;;;;;;;21.40;44.90;;;;;;460984;258;1305;-45
2021/06/03 04:15:29;;;;;;;;;;;21.40;44.90;;;;;;460940;258;2207;-45
2021/06/03 04:17:30;;;;;;;;;;;21.40;44.80;;;;;;460972;258;1110;-45
2021/06/03 04:19:31;;;;;;;;;;;21.50;44.80;;;;;;460928;258;1063;-45
2021/06/03 04:21:33;;;;;;;;;;;21.50;44.70;;;;;;461055;258;1231;-45
2021/06/03 04:23:34;;;;;;;;;;;21.50;44.70;;;;;;461031;258;1144;-45
2021/06/03 04:25:35;;;;;;;;;;;21.50;44.70;;;;;;461027;258;1116;-45
2021/06/03 04:27:37;;;;;;;;;;;21.50;44.60;;;;;;460901;258;1127;-45
2021/06/03 04:29:38;;;;;;;;;;;21.50;44.60;;;;;;461007;258;1205;-45
2021/06/03 04:31:39;;;;;;;;;;;21.60;44.70;;;;;;461038;258;1395;-45
2021/06/03 04:33:40;;;;;;;;;;;21.60;44.60;;;;;;460915;258;1150;-45
2021/06/03 04:35:42;;;;;;;;;;;21.60;44.60;;;;;;461036;258;2191;-45
2021/06/03 04:37:44;;;;;;;;;;;21.60;44.60;;;;;;460983;258;1203;-45
2021/06/03 04:39:44;;;;;;;;;;;21.60;44.50;;;;;;460878;258;2501;-45
2021/06/03 04:41:46;;;;;;;;;;;21.60;44.50;;;;;;460854;258;1237;-45
2021/06/03 04:43:47;;;;;;;;;;;21.70;44.60;;;;;;461004;258;1057;-45
2021/06/03 04:45:48;;;;;;;;;;;21.70;44.50;;;;;;460908;258;1273;-45
2021/06/03 04:47:49;;;;;;;;;;;21.70;44.50;;;;;;461112;258;1310;-45
2021/06/03 04:49:51;;;;;;;;;;;21.70;44.50;;;;;;461014;258;1099;-45
2021/06/03 04:51:52;;;;;;;;;;;21.70;44.40;;;;;;461046;258;1209;-45
2021/06/03 04:53:54;;;;;;;;;;;21.70;44.40;;;;;;460965;258;1105;-45
2021/06/03 04:55:55;;;;;;;;;;;21.80;44.40;;;;;;461063;258;2164;-45
2021/06/03 04:57:56;;;;;;;;;;;21.70;44.30;;;;;;461002;258;1184;-45
2021/06/03 04:59:58;;;;;;;;;;;21.80;44.40;;;;;;460953;258;1221;-45
2021/06/03 05:01:59;;;;;;;;;;;21.80;44.30;;;;;;461024;258;1268;-45
2021/06/03 05:04:00;;;;;;;;;;;21.80;44.40;;;;;;460936;258;1096;-45
2021/06/03 05:06:01;;;;;;;;;;;21.80;44.30;;;;;;460911;258;1129;-45
2021/06/03 05:08:03;;;;;;;;;;;21.80;44.30;;;;;;460905;258;1144;-45
2021/06/03 05:10:04;;;;;;;;;;;21.80;44.30;;;;;;460917;258;1134;-45
2021/06/03 05:12:05;;;;;;;;;;;21.80;44.30;;;;;;461033;258;1231;-45
2021/06/03 05:14:06;;;;;;;;;;;21.80;44.30;;;;;;460922;258;1057;-45
2021/06/03 05:16:08;;;;;;;;;;;21.80;44.40;;;;;;460865;258;2204;-45
2021/06/03 05:18:09;;;;;;;;;;;21.90;44.20;;;;;;460887;258;1232;-45
2021/06/03 05:20:10;;;;;;;;;;;21.50;44.80;;;;;;461023;258;1031;-45
2021/06/03 05:22:12;;;;;;;;;;;21.00;46.00;;;;;;461007;258;1291;-45
2021/06/03 05:24:13;;;;;;;;;;;20.60;47.30;;;;;;461078;258;1087;-45
2021/06/03 05:26:14;;;;;;;;;;;20.20;48.10;;;;;;460902;258;1471;-45
2021/06/03 05:28:15;;;;;;;;;;;20.00;48.80;;;;;;461000;258;1133;-45
2021/06/03 05:30:17;;;;;;;;;;;19.80;49.20;;;;;;461007;258;1172;-45
2021/06/03 05:32:18;;;;;;;;;;;19.60;49.50;;;;;;461123;258;1210;-45
2021/06/03 05:34:19;;;;;;;;;;;19.50;49.90;;;;;;460944;258;1079;-45
2021/06/03 05:36:21;;;;;;;;;;;19.50;50.10;;;;;;460937;258;2208;-45
2021/06/03 05:38:22;;;;;;;;;;;19.40;50.20;;;;;;461144;258;1077;-45
2021/06/03 05:40:23;;;;;;;;;;;19.30;50.40;;;;;;461012;258;1135;-45
2021/06/03 05:42:24;;;;;;;;;;;19.30;50.50;;;;;;461301;258;1133;-45
2021/06/03 05:44:26;;;;;;;;;;;19.30;50.60;;;;;;461090;258;1166;-45
2021/06/03 05:46:27;;;;;;;;;;;19.20;50.70;;;;;;460890;258;1218;-45
2021/06/03 05:48:28;;;;;;;;;;;19.20;50.90;;;;;;460910;258;1119;-45
2021/06/03 05:50:29;;;;;;;;;;;19.10;51.00;;;;;;461151;258;1099;-45
2021/06/03 05:52:31;;;;;;;;;;;19.10;51.10;;;;;;460936;258;1353;-45
2021/06/03 05:54:32;;;;;;;;;;;19.10;51.10;;;;;;460965;258;1111;-45
2021/06/03 05:56:33;;;;;;;;;;;19.00;51.10;;;;;;460864;258;2208;-45
2021/06/03 05:58:35;;;;;;;;;;;19.00;51.20;;;;;;461141;258;1086;-45
2021/06/03 06:00:36;;;;;;;;;;;19.00;51.30;;;;;;461049;258;1291;-45
2021/06/03 06:02:46;;;;;;;;;;;19.00;51.30;;;;;;460971;258;1079;-45
2021/06/03 06:07:04;;;;;;;;;;;18.90;51.50;;;;;;460951;258;1109;-45
2021/06/03 06:09:06;;;;;;;;;;;18.80;51.50;;;;;;461069;258;1127;-45
2021/06/03 06:11:07;;;;;;;;;;;18.80;51.70;;;;;;460880;258;1280;-45
2021/06/03 06:13:09;;;;;;;;;;;18.80;51.70;;;;;;460971;258;1052;-45
2021/06/03 06:15:10;;;;;;;;;;;18.80;51.70;;;;;;461151;258;1121;-45
2021/06/03 06:17:11;;;;;;;;;;;18.80;51.60;;;;;;460916;258;2200;-45
2021/06/03 06:19:13;;;;;;;;;;;18.80;51.70;;;;;;460951;258;1088;-45
2021/06/03 06:21:14;;;;;;;;;;;18.70;51.70;;;;;;460975;258;1239;-45
2021/06/03 06:23:16;;;;;;;;;;;18.70;51.70;;;;;;461042;258;1110;-45
2021/06/03 06:25:17;;;;;;;;;;;18.70;51.80;;;;;;460922;258;1965;-45
2021/06/03 06:27:18;;;;;;;;;;;18.70;52.00;;;;;;461052;258;1199;-45
2021/06/03 06:29:19;;;;;;;;;;;18.60;52.00;;;;;;461111;258;1108;-45
2021/06/03 06:31:21;;;;;;;;;;;18.60;52.00;;;;;;461019;258;1383;-45
2021/06/03 06:33:22;;;;;;;;;;;18.60;52.00;;;;;;461005;258;1124;-45
2021/06/03 06:35:23;;;;;;;;;;;18.60;52.00;;;;;;460975;258;1076;-45
2021/06/03 06:37:24;;;;;;;;;;;18.60;52.00;;;;;;461061;258;2145;-45
2021/06/03 06:39:26;;;;;;;;;;;18.60;52.10;;;;;;460979;258;1164;-45
2021/06/03 06:41:27;;;;;;;;;;;18.60;52.10;;;;;;460960;258;1117;-45
2021/06/03 06:43:28;;;;;;;;;;;18.60;52.10;;;;;;460922;258;1251;-45
2021/06/03 06:45:30;;;;;;;;;;;18.50;52.10;;;;;;461002;258;1194;-45
2021/06/03 06:47:31;;;;;;;;;;;18.50;52.20;;;;;;460871;258;1193;-45
2021/06/03 06:49:32;;;;;;;;;;;18.50;52.20;;;;;;460894;258;1227;-45
2021/06/03 06:51:34;;;;;;;;;;;18.50;52.20;;;;;;460876;258;1126;-45
2021/06/03 06:53:35;;;;;;;;;;;18.50;52.10;;;;;;460911;258;1132;-45
2021/06/03 06:55:36;;;;;;;;;;;18.50;52.10;;;;;;461032;258;1347;-45
2021/06/03 06:57:38;;;;;;;;;;;18.80;51.60;;;;;;460987;258;2153;-45
2021/06/03 06:59:39;;;;;;;;;;;19.20;50.40;;;;;;460915;258;1131;-45
2021/06/03 07:01:41;;;;;;;;;;;19.60;49.40;;;;;;460827;258;1300;-45
2021/06/03 07:03:42;;;;;;;;;;;19.80;48.60;;;;;;461069;258;1134;-45
2021/06/03 07:05:45;;;;;;;;;;;20.00;48.10;;;;;;460875;258;1147;-45
2021/06/03 07:07:44;;;;;;;;;;;20.20;47.80;;;;;;460650;258;1730;-45
2021/06/03 07:09:46;;;;;;;;;;;20.30;47.40;;;;;;460840;258;1129;-45
2021/06/03 07:11:47;;;;;;;;;;;20.40;47.20;;;;;;460833;258;1256;-45
2021/06/03 07:13:48;;;;;;;;;;;20.50;47.00;;;;;;461041;258;1151;-45
2021/06/03 07:15:50;;;;;;;;;;;20.50;46.80;;;;;;460936;258;1318;-45
2021/06/03 07:17:53;;;;;;;;;;;20.60;46.70;;;;;;460918;258;2164;-45
2021/06/03 07:19:52;;;;;;;;;;;20.60;46.60;;;;;;460894;258;1409;-45
2021/06/03 07:21:53;;;;;;;;;;;20.70;46.50;;;;;;460881;258;1118;-45
2021/06/03 07:23:55;;;;;;;;;;;20.80;46.30;;;;;;461122;258;1248;-45
2021/06/03 07:25:57;;;;;;;;;;;20.80;46.10;;;;;;460895;258;1092;-45
2021/06/03 07:27:57;;;;;;;;;;;20.90;46.00;;;;;;460999;258;2407;-45
2021/06/03 07:30:00;;;;;;;;;;;20.90;46.00;;;;;;460897;258;1195;-45
2021/06/03 07:32:00;;;;;;;;;;;20.90;46.00;;;;;;460884;258;2123;-45
2021/06/03 07:34:01;;;;;;;;;;;21.00;45.80;;;;;;460981;258;1135;-45
2021/06/03 07:36:03;;;;;;;;;;;21.00;45.80;;;;;;460856;258;1283;-45
2021/06/03 07:38:04;;;;;;;;;;;21.00;45.70;;;;;;460852;258;2220;-45
2021/06/03 07:40:05;;;;;;;;;;;21.10;45.70;;;;;;461006;258;1095;-45
2021/06/03 07:42:08;;;;;;;;;;;21.10;45.60;;;;;;460896;258;1213;-45
2021/06/03 07:44:08;;;;;;;;;;;21.10;45.50;;;;;;460860;258;1298;-45
2021/06/03 07:46:10;;;;;;;;;;;21.10;45.50;;;;;;461047;258;1423;-45
2021/06/03 07:48:11;;;;;;;;;;;21.20;45.50;;;;;;460898;258;1816;-44
2021/06/03 07:50:12;;;;;;;;;;;21.20;45.40;;;;;;460818;258;1137;-45
2021/06/03 07:52:13;;;;;;;;;;;21.20;45.40;;;;;;460856;258;1222;-45
2021/06/03 07:54:14;;;;;;;;;;;21.20;45.30;;;;;;460942;258;1130;-45
2021/06/03 07:56:16;;;;;;;;;;;21.30;45.30;;;;;;460825;258;1248;-45
2021/06/03 07:58:17;;;;;;;;;;;21.30;45.30;;;;;;461261;258;2156;-45
2021/06/03 08:00:18;;;;;;;;;;;21.30;45.20;;;;;;461020;258;1122;-45
2021/06/03 08:02:20;;;;;;;;;;;21.40;45.20;;;;;;460856;258;1346;-45
2021/06/03 08:04:21;;;;;;;;;;;21.40;45.10;;;;;;460912;258;1078;-45
2021/06/03 08:06:22;;;;;;;;;;;21.40;45.00;;;;;;460829;258;1167;-45
2021/06/03 08:08:23;;;;;;;;;;;21.40;45.00;;;;;;460896;258;1104;-45
2021/06/03 08:10:25;;;;;;;;;;;21.40;45.00;;;;;;460891;258;1086;-45
2021/06/03 08:12:26;;;;;;;;;;;21.40;44.90;;;;;;460840;258;1247;-45
2021/06/03 08:14:27;;;;;;;;;;;21.50;45.00;;;;;;460862;258;1126;-45
2021/06/03 08:16:28;;;;;;;;;;;21.50;44.90;;;;;;460941;258;1222;-45
2021/06/03 08:18:30;;;;;;;;;;;21.50;44.90;;;;;;460895;258;2220;-45
2021/06/03 08:20:31;;;;;;;;;;;21.50;44.80;;;;;;460861;258;1116;-45
2021/06/03 08:22:32;;;;;;;;;;;21.50;44.90;;;;;;460926;258;1127;-45
2021/06/03 08:24:34;;;;;;;;;;;21.60;44.80;;;;;;461114;258;1208;-45
2021/06/03 08:26:35;;;;;;;;;;;21.60;44.70;;;;;;460881;258;1128;-45
2021/06/03 08:28:36;;;;;;;;;;;21.60;44.70;;;;;;460928;258;1091;-45
2021/06/03 08:30:37;;;;;;;;;;;21.60;44.70;;;;;;460847;258;1085;-45
2021/06/03 08:32:39;;;;;;;;;;;21.60;44.70;;;;;;460993;258;1217;-45
2021/06/03 08:34:40;;;;;;;;;;;21.60;44.60;;;;;;461052;258;1050;-45
2021/06/03 08:36:41;;;;;;;;;;;21.70;44.70;;;;;;460824;258;1133;-45
2021/06/03 08:38:43;;;;;;;;;;;21.70;44.60;;;;;;461017;258;2196;-45
2021/06/03 08:40:44;;;;;;;;;;;21.70;44.60;;;;;;460867;258;1104;-45
2021/06/03 08:42:45;;;;;;;;;;;21.70;44.60;;;;;;461127;258;1074;-45
2021/06/03 08:44:46;;;;;;;;;;;21.70;44.60;;;;;;460935;258;1164;-45
2021/06/03 08:46:48;;;;;;;;;;;21.70;44.50;;;;;;460892;258;1114;-45
2021/06/03 08:48:49;;;;;;;;;;;21.70;44.50;;;;;;460873;258;1227;-45
2021/06/03 08:50:51;;;;;;;;;;;21.80;44.50;;;;;;460830;258;1108;-45
2021/06/03 08:52:52;;;;;;;;;;;21.80;44.50;;;;;;460921;258;1110;-45
2021/06/03 08:54:55;;;;;;;;;;;21.80;44.50;;;;;;460881;258;1091;-45
2021/06/03 08:56:55;;;;;;;;;;;21.80;44.40;;;;;;460899;258;2085;-45
2021/06/03 08:58:56;;;;;;;;;;;21.80;44.30;;;;;;461072;258;2207;-45
2021/06/03 09:00:57;;;;;;;;;;;21.80;44.30;;;;;;460871;258;1119;-45
2021/06/03 09:02:58;;;;;;;;;;;21.80;44.40;;;;;;460872;258;1317;-45
2021/06/03 09:05:00;;;;;;;;;;;21.90;44.30;;;;;;460926;258;1276;-45
2021/06/03 09:07:01;;;;;;;;;;;21.60;44.90;;;;;;460915;258;1120;-45
2021/06/03 09:09:02;;;;;;;;;;;21.10;46.10;;;;;;460989;258;1183;-45
2021/06/03 09:11:04;;;;;;;;;;;20.50;47.30;;;;;;460869;258;1115;-45
2021/06/03 09:13:05;;;;;;;;;;;20.20;48.10;;;;;;460882;258;1241;-45
2021/06/03 09:15:06;;;;;;;;;;;20.00;48.70;;;;;;460893;258;1451;-45
2021/06/03 09:17:09;;;;;;;;;;;19.80;49.10;;;;;;460956;258;1128;-45
2021/06/03 09:19:10;;;;;;;;;;;19.70;49.50;;;;;;460850;258;1431;-45
2021/06/03 09:21:11;;;;;;;;;;;19.60;49.70;;;;;;460793;258;1277;-45
2021/06/03 09:23:12;;;;;;;;;;;19.50;49.90;;;;;;460892;258;1144;-45
2021/06/03 09:25:13;;;;;;;;;;;19.50;50.20;;;;;;460853;258;1331;-45
2021/06/03 09:27:15;;;;;;;;;;;19.40;50.40;;;;;;461014;258;1271;-45
2021/06/03 09:29:16;;;;;;;;;;;19.40;50.50;;;;;;460892;258;1084;-45
2021/06/03 09:31:17;;;;;;;;;;;19.30;50.70;;;;;;460826;258;1584;-44
2021/06/03 09:33:18;;;;;;;;;;;19.20;50.80;;;;;;460879;258;1235;-45
2021/06/03 09:35:21;;;;;;;;;;;19.20;50.80;;;;;;460870;258;1092;-45
2021/06/03 09:37:22;;;;;;;;;;;19.10;50.90;;;;;;460877;256;2192;-45
2021/06/03 09:39:23;;;;;;;;;;;19.20;51.00;;;;;;461123;258;1112;-45
2021/06/03 09:41:25;;;;;;;;;;;19.10;51.00;;;;;;460933;258;1466;-45
2021/06/03 09:43:26;;;;;;;;;;;19.10;50.90;;;;;;460939;258;1244;-45
2021/06/03 09:45:27;;;;;;;;;;;19.10;51.10;;;;;;460985;258;1110;-45
2021/06/03 09:47:28;;;;;;;;;;;19.10;51.20;;;;;;461024;258;1270;-45
2021/06/03 09:49:30;;;;;;;;;;;19.00;51.30;;;;;;461034;258;1216;-45
2021/06/03 09:51:31;;;;;;;;;;;19.00;51.40;;;;;;461049;258;1221;-45
2021/06/03 09:53:32;;;;;;;;;;;19.00;51.40;;;;;;461003;258;1074;-45
2021/06/03 09:55:34;;;;;;;;;;;18.90;51.50;;;;;;461012;258;1103;-45
2021/06/03 09:57:35;;;;;;;;;;;18.90;51.50;;;;;;460851;258;2161;-45
2021/06/03 09:59:36;;;;;;;;;;;18.80;51.50;;;;;;460993;258;1140;-45
2021/06/03 10:01:38;;;;;;;;;;;18.90;51.60;;;;;;460801;258;1177;-45
2021/06/03 10:03:39;;;;;;;;;;;18.80;51.50;;;;;;460932;258;1461;-45
2021/06/03 10:05:40;;;;;;;;;;;18.80;51.50;;;;;;460897;258;1143;-45
2021/06/03 10:07:41;;;;;;;;;;;18.80;51.60;;;;;;460850;258;1179;-45
2021/06/03 10:09:43;;;;;;;;;;;18.80;51.70;;;;;;460985;258;1089;-45
2021/06/03 10:11:44;;;;;;;;;;;18.80;51.60;;;;;;460864;258;1167;-45
2021/06/03 10:13:45;;;;;;;;;;;18.70;51.70;;;;;;460940;258;1098;-45
2021/06/03 10:15:47;;;;;;;;;;;18.70;51.80;;;;;;460810;258;1338;-45
2021/06/03 10:17:48;;;;;;;;;;;18.70;51.80;;;;;;460982;258;2153;-45
2021/06/03 10:19:49;;;;;;;;;;;18.70;51.70;;;;;;460937;258;1171;-45
2021/06/03 10:21:50;;;;;;;;;;;18.70;51.90;;;;;;460842;258;1208;-45
2021/06/03 10:23:52;;;;;;;;;;;18.70;51.80;;;;;;460955;258;1128;-45
2021/06/03 10:25:53;;;;;;;;;;;18.70;51.90;;;;;;460953;258;1122;-45
2021/06/03 10:27:54;;;;;;;;;;;18.70;51.80;;;;;;460889;258;1241;-45
2021/06/03 10:29:55;;;;;;;;;;;18.60;52.00;;;;;;460961;258;1079;-45
2021/06/03 10:31:57;;;;;;;;;;;18.60;52.00;;;;;;460836;258;1125;-45
2021/06/03 10:33:58;;;;;;;;;;;18.60;52.00;;;;;;460964;258;1101;-45
2021/06/03 10:35:59;;;;;;;;;;;18.60;52.00;;;;;;460906;258;1210;-45
2021/06/03 10:38:02;;;;;;;;;;;18.60;51.90;;;;;;460942;258;2205;-45
2021/06/03 10:40:02;;;;;;;;;;;18.60;52.00;;;;;;460911;258;2044;-45
2021/06/03 10:42:03;;;;;;;;;;;18.60;52.00;;;;;;460926;258;1198;-45
2021/06/03 10:44:04;;;;;;;;;;;18.60;52.10;;;;;;460915;258;1146;-45
2021/06/03 10:46:06;;;;;;;;;;;18.50;52.20;;;;;;460869;258;1061;-45
2021/06/03 10:48:07;;;;;;;;;;;18.50;52.20;;;;;;460850;258;1070;-45
2021/06/03 10:50:08;;;;;;;;;;;18.50;52.20;;;;;;460854;258;1166;-45
2021/06/03 10:52:09;;;;;;;;;;;18.40;52.20;;;;;;460895;258;1100;-44
2021/06/03 10:54:11;;;;;;;;;;;18.50;52.20;;;;;;460876;258;1137;-45
2021/06/03 10:56:12;;;;;;;;;;;18.50;52.20;;;;;;461018;258;1172;-45
2021/06/03 10:58:14;;;;;;;;;;;18.50;52.00;;;;;;460949;258;2189;-45
2021/06/03 11:00:15;;;;;;;;;;;18.90;51.20;;;;;;460959;258;1109;-45
2021/06/03 11:02:16;;;;;;;;;;;19.30;50.00;;;;;;460889;258;1502;-45
2021/06/03 11:04:19;;;;;;;;;;;19.60;49.20;;;;;;461115;258;1123;-45
2021/06/03 11:06:19;;;;;;;;;;;19.90;48.60;;;;;;460886;258;1438;-45
2021/06/03 11:08:20;;;;;;;;;;;20.00;48.00;;;;;;460858;258;1246;-45
2021/06/03 11:10:21;;;;;;;;;;;20.20;47.70;;;;;;461018;258;1106;-45
2021/06/03 11:12:23;;;;;;;;;;;20.30;47.40;;;;;;460924;258;1182;-45
2021/06/03 11:14:24;;;;;;;;;;;20.40;47.10;;;;;;460999;258;1129;-45
2021/06/03 11:16:25;;;;;;;;;;;20.40;47.00;;;;;;460777;258;1273;-45
2021/06/03 11:18:27;;;;;;;;;;;20.50;46.90;;;;;;460886;258;2181;-45
2021/06/03 11:20:28;;;;;;;;;;;20.60;46.70;;;;;;460893;258;1362;-45
2021/06/03 11:22:30;;;;;;;;;;;20.60;46.60;;;;;;460869;258;1260;-45
2021/06/03 11:24:32;;;;;;;;;;;20.70;46.50;;;;;;461023;258;1243;-45
2021/06/03 11:26:32;;;;;;;;;;;20.70;46.30;;;;;;460932;258;2264;-45
2021/06/03 11:28:34;;;;;;;;;;;20.80;46.30;;;;;;460879;258;1091;-45
2021/06/03 11:30:35;;;;;;;;;;;20.80;46.10;;;;;;460840;258;1108;-45
2021/06/03 11:32:38;;;;;;;;;;;20.90;46.00;;;;;;460814;258;1340;-45
2021/06/03 11:34:37;;;;;;;;;;;20.90;46.00;;;;;;460879;258;1324;-45
2021/06/03 11:36:39;;;;;;;;;;;20.90;45.80;;;;;;460855;258;1503;-45
2021/06/03 11:38:40;;;;;;;;;;;21.00;45.90;;;;;;460917;258;2156;-45
2021/06/03 11:40:41;;;;;;;;;;;21.00;45.80;;;;;;460991;258;1181;-45
2021/06/03 11:42:43;;;;;;;;;;;21.00;45.70;;;;;;460824;258;1186;-45
2021/06/03 11:44:44;;;;;;;;;;;21.10;45.70;;;;;;460922;258;1118;-45
2021/06/03 11:46:45;;;;;;;;;;;21.10;45.60;;;;;;460987;258;1127;-45
2021/06/03 11:48:46;;;;;;;;;;;21.10;45.50;;;;;;460892;258;1066;-45
2021/06/03 11:50:48;;;;;;;;;;;21.10;45.50;;;;;;460907;258;1136;-45
2021/06/03 11:52:49;;;;;;;;;;;21.20;45.50;;;;;;460874;258;1105;-45
2021/06/03 11:54:50;;;;;;;;;;;21.20;45.50;;;;;;460970;258;1084;-45
2021/06/03 11:56:51;;;;;;;;;;;21.20;45.40;;;;;;460792;258;1084;-45
2021/06/03 11:58:55;;;;;;;;;;;21.20;45.40;;;;;;460982;258;2196;-45